createdAt,value
2022-11-20T00:00:16.555Z,11.80
2022-11-20T00:02:45.203Z,11.60
2022-11-20T00:05:13.595Z,12.03
2022-11-20T00:07:42.478Z,11.07
2022-11-20T00:10:11.793Z,11.60
2022-11-20T00:12:41.603Z,12.10
2022-11-20T00:15:11.084Z,12.33
2022-11-20T00:17:39.742Z,11.53
2022-11-20T00:20:08.557Z,11.77
2022-11-20T00:22:36.857Z,11.37
2022-11-20T00:25:05.369Z,12.10
2022-11-20T00:27:33.652Z,12.23
2022-11-20T00:30:03.482Z,11.00
2022-11-20T00:32:32.298Z,11.27
2022-11-20T00:35:01.457Z,11.37
2022-11-20T00:37:30.218Z,11.53
2022-11-20T00:39:58.827Z,12.23
2022-11-20T00:42:27.342Z,11.87
2022-11-20T00:44:57.323Z,11.70
2022-11-20T00:47:27.028Z,12.57
2022-11-20T00:49:55.370Z,12.90
2022-11-20T00:52:23.963Z,12.07
2022-11-20T00:54:52.578Z,11.57
2022-11-20T00:57:21.321Z,12.27
2022-11-20T00:59:50.005Z,11.93
2022-11-20T01:02:19.926Z,11.10
2022-11-20T01:04:49.634Z,11.53
2022-11-20T01:07:18.588Z,12.40
2022-11-20T01:09:46.994Z,11.50
2022-11-20T01:12:15.299Z,11.67
2022-11-20T01:14:44.196Z,12.73
2022-11-20T01:17:12.808Z,12.37
2022-11-20T01:19:41.200Z,11.07
2022-11-20T01:22:11.065Z,12.40
2022-11-20T01:24:39.456Z,11.57
2022-11-20T01:27:08.208Z,11.27
2022-11-20T01:29:36.607Z,12.03
2022-11-20T01:32:06.155Z,11.17
2022-11-20T01:34:34.610Z,12.13
2022-11-20T01:37:02.992Z,11.53
2022-11-20T01:39:32.878Z,10.80
2022-11-20T01:42:18.728Z,11.97
2022-11-20T01:44:51.166Z,12.00
2022-11-20T01:47:20.337Z,11.33
2022-11-20T01:49:49.518Z,11.80
2022-11-20T01:52:18.318Z,11.50
2022-11-20T01:54:49.183Z,11.37
2022-11-20T01:57:17.592Z,10.67
2022-11-20T01:59:47.116Z,12.03
2022-11-20T02:02:15.370Z,11.63
2022-11-20T02:04:43.725Z,10.73
2022-11-20T02:07:12.242Z,11.83
2022-11-20T02:09:40.730Z,11.53
2022-11-20T02:12:30.868Z,11.73
2022-11-20T02:14:59.044Z,11.67
2022-11-20T02:17:27.430Z,12.30
2022-11-20T02:19:55.700Z,12.10
2022-11-20T02:22:25.293Z,11.83
2022-11-20T02:24:54.977Z,11.53
2022-11-20T02:27:23.442Z,11.83
2022-11-20T02:29:52.943Z,11.20
2022-11-20T02:32:21.725Z,12.33
2022-11-20T02:34:50.057Z,10.90
2022-11-20T02:37:18.512Z,12.10
2022-11-20T02:39:46.944Z,12.27
2022-11-20T02:42:16.810Z,11.70
2022-11-20T02:44:45.167Z,11.57
2022-11-20T02:47:13.544Z,12.57
2022-11-20T02:49:41.928Z,10.87
2022-11-20T02:52:10.285Z,11.60
2022-11-20T02:54:38.689Z,11.87
2022-11-20T02:57:07.053Z,12.30
2022-11-20T02:59:36.947Z,12.17
2022-11-20T03:02:05.911Z,12.27
2022-11-20T03:04:34.313Z,12.73
2022-11-20T03:07:02.843Z,12.57
2022-11-20T03:09:31.242Z,12.33
2022-11-20T03:11:59.680Z,11.20
2022-11-20T03:14:28.093Z,12.33
2022-11-20T03:16:57.927Z,12.67
2022-11-20T03:19:26.489Z,12.37
2022-11-20T03:21:54.773Z,12.50
2022-11-20T03:24:23.108Z,12.20
2022-11-20T03:26:51.455Z,12.73
2022-11-20T03:29:20.014Z,12.77
2022-11-20T03:31:48.514Z,12.37
2022-11-20T03:34:18.328Z,13.63
2022-11-20T03:36:46.672Z,13.07
2022-11-20T03:39:15.066Z,12.43
2022-11-20T03:41:44.481Z,13.07
2022-11-20T03:44:13.424Z,12.83
2022-11-20T03:46:41.767Z,13.10
2022-11-20T03:49:10.058Z,12.63
2022-11-20T03:51:39.743Z,11.57
2022-11-20T03:54:08.621Z,12.87
2022-11-20T03:56:37.966Z,12.70
2022-11-20T03:59:06.386Z,11.30
2022-11-20T04:01:35.331Z,12.10
2022-11-20T04:04:03.807Z,12.83
2022-11-20T04:06:32.586Z,12.57
2022-11-20T04:09:02.388Z,12.53
2022-11-20T04:11:31.035Z,11.87
2022-11-20T04:13:59.862Z,12.83
2022-11-20T04:16:28.549Z,13.60
2022-11-20T04:18:57.457Z,12.47
2022-11-20T04:21:25.784Z,13.10
2022-11-20T04:23:54.392Z,12.90
2022-11-20T04:26:24.011Z,13.53
2022-11-20T04:28:52.369Z,12.83
2022-11-20T04:31:20.991Z,13.60
2022-11-20T04:33:49.490Z,13.53
2022-11-20T04:36:18.297Z,12.53
2022-11-20T04:38:46.740Z,12.77
2022-11-20T04:41:16.488Z,13.13
2022-11-20T04:43:47.989Z,13.57
2022-11-20T04:46:16.375Z,13.07
2022-11-20T04:48:44.755Z,11.83
2022-11-20T04:51:13.446Z,12.33
2022-11-20T04:53:41.790Z,12.73
2022-11-20T04:56:10.960Z,12.90
2022-11-20T04:58:39.270Z,12.57
2022-11-20T05:01:09.487Z,12.17
2022-11-20T05:03:42.134Z,12.53
2022-11-20T05:06:10.944Z,13.37
2022-11-20T05:08:39.364Z,12.47
2022-11-20T05:11:08.742Z,13.10
2022-11-20T05:13:37.155Z,13.60
2022-11-20T05:16:05.958Z,12.30
2022-11-20T05:18:36.032Z,13.73
2022-11-20T05:21:04.338Z,12.77
2022-11-20T05:23:32.847Z,13.37
2022-11-20T05:26:01.329Z,13.17
2022-11-20T05:28:30.286Z,12.67
2022-11-20T05:30:58.596Z,13.07
2022-11-20T05:33:26.890Z,12.73
2022-11-20T05:35:56.625Z,11.87
2022-11-20T05:38:24.996Z,12.53
2022-11-20T05:40:53.494Z,13.07
2022-11-20T05:43:21.865Z,12.23
2022-11-20T05:45:54.860Z,12.53
2022-11-20T05:48:23.127Z,12.57
2022-11-20T05:50:51.547Z,13.73
2022-11-20T05:53:21.329Z,14.13
2022-11-20T05:55:49.768Z,13.57
2022-11-20T05:58:18.053Z,14.50
2022-11-20T06:00:46.502Z,13.77
2022-11-20T06:03:14.833Z,13.10
2022-11-20T06:05:43.187Z,13.97
2022-11-20T06:08:11.620Z,13.40
2022-11-20T06:10:41.361Z,13.67
2022-11-20T06:13:09.757Z,13.97
2022-11-20T06:15:38.059Z,14.57
2022-11-20T06:18:06.569Z,13.73
2022-11-20T06:20:40.772Z,14.47
2022-11-20T06:23:10.398Z,13.57
2022-11-20T06:25:41.421Z,13.30
2022-11-20T06:28:09.815Z,14.00
2022-11-20T06:30:38.206Z,13.80
2022-11-20T06:33:06.611Z,14.57
2022-11-20T06:35:35.050Z,12.90
2022-11-20T06:38:03.431Z,13.70
2022-11-20T06:40:31.750Z,13.53
2022-11-20T06:43:01.402Z,13.37
2022-11-20T06:45:29.792Z,13.43
2022-11-20T06:48:00.015Z,13.77
2022-11-20T06:50:28.394Z,13.23
2022-11-20T06:52:56.729Z,13.03
2022-11-20T06:55:25.060Z,14.00
2022-11-20T06:57:55.904Z,13.77
2022-11-20T07:00:25.819Z,13.77
2022-11-20T07:02:54.617Z,13.83
2022-11-20T07:05:23.101Z,15.33
2022-11-20T07:07:51.554Z,13.70
2022-11-20T07:10:19.919Z,14.90
2022-11-20T07:12:52.422Z,14.07
2022-11-20T07:15:20.826Z,15.80
2022-11-20T07:17:50.642Z,14.87
2022-11-20T07:20:19.065Z,14.27
2022-11-20T07:22:47.438Z,14.43
2022-11-20T07:25:15.724Z,15.10
2022-11-20T07:27:44.085Z,14.20
2022-11-20T07:30:12.704Z,13.80
2022-11-20T07:32:41.012Z,14.90
2022-11-20T07:35:12.798Z,13.73
2022-11-20T07:37:41.358Z,14.93
2022-11-20T07:40:09.920Z,14.43
2022-11-20T07:42:38.345Z,14.10
2022-11-20T07:45:07.168Z,14.93
2022-11-20T07:47:37.818Z,15.20
2022-11-20T07:50:06.521Z,14.10
2022-11-20T07:52:36.373Z,15.47
2022-11-20T07:55:04.700Z,15.53
2022-11-20T07:57:33.120Z,14.13
2022-11-20T08:00:01.579Z,14.70
2022-11-20T08:02:30.034Z,16.67
2022-11-20T08:04:58.619Z,15.53
2022-11-20T08:07:27.067Z,15.40
2022-11-20T08:09:56.851Z,16.63
2022-11-20T08:12:42.811Z,15.17
2022-11-20T08:15:13.322Z,16.47
2022-11-20T08:17:41.845Z,16.03
2022-11-20T08:20:10.726Z,15.87
2022-11-20T08:22:39.016Z,15.00
2022-11-20T08:25:09.235Z,14.70
2022-11-20T08:27:38.937Z,15.40
2022-11-20T08:30:08.167Z,15.87
2022-11-20T08:32:38.435Z,16.00
2022-11-20T08:35:07.023Z,16.87
2022-11-20T08:37:35.440Z,17.10
2022-11-20T08:40:03.792Z,16.13
2022-11-20T08:42:33.500Z,16.00
2022-11-20T08:45:01.850Z,16.63
2022-11-20T08:47:30.205Z,16.13
2022-11-20T08:49:58.664Z,16.50
2022-11-20T08:52:27.031Z,16.53
2022-11-20T08:54:55.410Z,17.03
2022-11-20T08:57:24.609Z,17.50
2022-11-20T09:00:10.121Z,15.97
2022-11-20T09:02:39.369Z,15.83
2022-11-20T09:05:08.114Z,16.93
2022-11-20T09:07:39.673Z,17.40
2022-11-20T09:10:25.043Z,17.47
2022-11-20T09:12:53.636Z,17.70
2022-11-20T09:15:23.356Z,17.80
2022-11-20T09:17:54.748Z,19.03
2022-11-20T09:20:23.229Z,18.23
2022-11-20T09:22:51.503Z,17.87
2022-11-20T09:25:20.154Z,19.43
2022-11-20T09:27:48.415Z,20.30
2022-11-20T09:30:17.029Z,19.63
2022-11-20T09:32:46.718Z,19.43
2022-11-20T09:35:15.584Z,17.93
2022-11-20T09:37:43.924Z,19.07
2022-11-20T09:40:13.091Z,19.30
2022-11-20T09:42:42.517Z,18.57
2022-11-20T09:45:23.817Z,19.80
2022-11-20T09:48:12.202Z,18.60
2022-11-20T09:50:44.222Z,17.70
2022-11-20T09:53:16.547Z,20.10
2022-11-20T09:55:44.913Z,19.57
2022-11-20T09:58:16.097Z,20.00
2022-11-20T10:00:44.826Z,19.13
2022-11-20T10:03:20.699Z,20.80
2022-11-20T10:05:49.464Z,19.90
2022-11-20T10:08:25.181Z,20.93
2022-11-20T10:10:55.826Z,20.07
2022-11-20T10:13:27.652Z,21.60
2022-11-20T10:15:58.448Z,21.90
2022-11-20T10:18:32.610Z,20.30
2022-11-20T10:21:02.419Z,19.80
2022-11-20T10:23:37.796Z,20.63
2022-11-20T10:26:06.888Z,19.83
2022-11-20T10:28:41.328Z,21.03
2022-11-20T10:31:11.401Z,20.53
2022-11-20T10:33:57.460Z,21.00
2022-11-20T10:36:30.645Z,21.20
2022-11-20T10:38:59.755Z,22.20
2022-11-20T10:41:31.960Z,21.07
2022-11-20T10:44:04.609Z,19.97
2022-11-20T10:46:35.861Z,20.87
2022-11-20T10:49:06.345Z,21.50
2022-11-20T10:51:37.543Z,22.13
2022-11-20T10:54:12.852Z,22.43
2022-11-20T10:56:46.881Z,21.07
2022-11-20T10:59:29.639Z,21.20
2022-11-20T11:01:59.792Z,22.57
2022-11-20T11:04:35.725Z,21.43
2022-11-20T11:07:08.375Z,21.83
2022-11-20T11:09:37.395Z,22.00
2022-11-20T11:12:10.289Z,21.73
2022-11-20T11:14:45.275Z,21.87
2022-11-20T11:17:21.965Z,22.80
2022-11-20T11:20:02.346Z,22.50
2022-11-20T11:22:32.154Z,23.17
2022-11-20T11:25:00.824Z,23.07
2022-11-20T11:27:29.555Z,24.60
2022-11-20T11:30:04.523Z,24.17
2022-11-20T11:32:32.911Z,24.03
2022-11-20T11:35:03.224Z,22.83
2022-11-20T11:37:35.052Z,23.67
2022-11-20T11:40:23.562Z,23.53
2022-11-20T11:42:54.219Z,23.93
2022-11-20T11:45:21.806Z,23.07
2022-11-20T11:47:50.494Z,23.80
2022-11-20T11:50:21.805Z,23.73
2022-11-20T11:52:55.488Z,23.90
2022-11-20T11:55:27.811Z,23.63
2022-11-20T11:57:58.504Z,24.03
2022-11-20T12:00:26.995Z,22.87
2022-11-20T12:02:57.480Z,23.47
2022-11-20T12:05:27.891Z,24.80
2022-11-20T12:07:57.601Z,25.77
2022-11-20T12:10:27.724Z,25.17
2022-11-20T12:12:58.941Z,25.17
2022-11-20T12:15:31.948Z,25.60
2022-11-20T12:18:00.712Z,26.67
2022-11-20T12:20:31.098Z,25.03
2022-11-20T12:23:02.586Z,26.77
2022-11-20T12:25:31.281Z,27.20
2022-11-20T12:28:14.741Z,27.03
2022-11-20T12:30:44.435Z,26.80
2022-11-20T12:33:19.679Z,27.80
2022-11-20T12:35:54.000Z,26.07
2022-11-20T12:38:29.192Z,28.00
2022-11-20T12:40:59.419Z,27.13
2022-11-20T12:43:45.312Z,27.77
2022-11-20T12:46:17.465Z,25.53
2022-11-20T12:48:50.265Z,27.63
2022-11-20T12:51:28.737Z,26.63
2022-11-20T12:54:01.278Z,26.33
2022-11-20T12:56:32.292Z,26.33
2022-11-20T12:59:03.476Z,28.43
2022-11-20T13:01:43.577Z,27.77
2022-11-20T13:04:16.740Z,28.43
2022-11-20T13:06:46.980Z,27.27
2022-11-20T13:09:16.039Z,26.83
2022-11-20T13:11:46.131Z,25.97
2022-11-20T13:14:17.228Z,27.93
2022-11-20T13:16:48.107Z,28.70
2022-11-20T13:19:17.017Z,28.17
2022-11-20T13:21:51.439Z,26.57
2022-11-20T13:24:27.040Z,26.50
2022-11-20T13:27:15.927Z,29.53
2022-11-20T13:29:47.475Z,27.00
2022-11-20T13:32:16.946Z,27.57
2022-11-20T13:34:54.543Z,29.07
2022-11-20T13:37:35.474Z,27.87
2022-11-20T13:40:17.042Z,30.87
2022-11-20T13:42:46.698Z,28.07
2022-11-20T13:45:24.385Z,28.77
2022-11-20T13:47:52.762Z,29.47
2022-11-20T13:50:21.130Z,26.67
2022-11-20T13:52:52.445Z,29.40
2022-11-20T13:55:24.849Z,28.23
2022-11-20T13:58:02.322Z,29.43
2022-11-20T14:00:30.947Z,27.97
2022-11-20T14:03:03.892Z,32.17
2022-11-20T14:05:38.951Z,30.30
2022-11-20T14:08:10.014Z,28.87
2022-11-20T14:10:40.224Z,29.63
2022-11-20T14:13:17.989Z,30.47
2022-11-20T14:15:46.565Z,30.17
2022-11-20T14:18:15.381Z,30.50
2022-11-20T14:20:43.847Z,29.97
2022-11-20T14:23:13.761Z,30.13
2022-11-20T14:25:45.018Z,31.97
2022-11-20T14:28:13.373Z,29.20
2022-11-20T14:30:42.235Z,30.67
2022-11-20T14:33:12.803Z,29.07
2022-11-20T14:35:43.445Z,29.50
2022-11-20T14:38:13.888Z,29.80
2022-11-20T14:40:43.373Z,28.40
2022-11-20T14:43:19.671Z,29.10
2022-11-20T14:45:48.260Z,27.63
2022-11-20T14:48:16.664Z,28.17
2022-11-20T14:50:45.052Z,28.27
2022-11-20T14:53:14.961Z,28.57
2022-11-20T14:55:43.459Z,28.57
2022-11-20T14:58:23.218Z,29.13
2022-11-20T15:00:59.925Z,28.40
2022-11-20T15:03:33.822Z,29.33
2022-11-20T15:06:02.215Z,29.20
2022-11-20T15:08:32.098Z,30.17
2022-11-20T15:11:00.405Z,32.43
2022-11-20T15:13:30.038Z,29.13
2022-11-20T15:15:59.868Z,26.13
2022-11-20T15:18:29.732Z,26.17
2022-11-20T15:20:58.235Z,27.50
2022-11-20T15:23:26.657Z,26.70
2022-11-20T15:25:56.389Z,29.10
2022-11-20T15:28:32.874Z,27.10
2022-11-20T15:31:01.266Z,25.60
2022-11-20T15:33:29.946Z,27.10
2022-11-20T15:35:58.340Z,25.43
2022-11-20T15:38:26.739Z,26.40
2022-11-20T15:40:56.673Z,26.07
2022-11-20T15:43:25.161Z,26.90
2022-11-20T15:45:53.884Z,26.60
2022-11-20T15:48:22.768Z,27.37
2022-11-20T15:50:52.892Z,26.23
2022-11-20T15:53:21.318Z,27.27
2022-11-20T15:55:49.754Z,28.80
2022-11-20T15:58:19.505Z,28.63
2022-11-20T16:00:47.841Z,28.63
2022-11-20T16:03:16.302Z,27.33
2022-11-20T16:05:44.724Z,28.27
2022-11-20T16:08:13.162Z,29.17
2022-11-20T16:10:41.488Z,28.70
2022-11-20T16:13:31.624Z,28.63
2022-11-20T16:16:01.677Z,27.37
2022-11-20T16:18:30.027Z,26.90
2022-11-20T16:20:58.411Z,26.87
2022-11-20T16:23:26.763Z,26.67
2022-11-20T16:25:55.343Z,26.73
2022-11-20T16:28:23.774Z,26.60
2022-11-20T16:30:52.159Z,27.57
2022-11-20T16:33:22.151Z,27.80
2022-11-20T16:35:50.551Z,29.80
2022-11-20T16:38:18.978Z,29.83
2022-11-20T16:40:47.352Z,26.83
2022-11-20T16:43:15.943Z,26.93
2022-11-20T16:45:44.547Z,29.00
2022-11-20T16:48:16.127Z,28.03
2022-11-20T16:50:49.643Z,28.67
2022-11-20T16:53:18.206Z,27.83
2022-11-20T16:55:46.469Z,27.70
2022-11-20T16:58:14.887Z,28.47
2022-11-20T17:00:48.466Z,33.67
2022-11-20T17:03:21.155Z,29.00
2022-11-20T17:06:00.615Z,28.97
2022-11-20T17:08:30.604Z,29.27
2022-11-20T17:11:06.704Z,29.07
2022-11-20T17:13:39.648Z,28.17
2022-11-20T17:16:09.045Z,30.53
2022-11-20T17:18:37.458Z,27.87
2022-11-20T17:21:07.512Z,27.37
2022-11-20T17:23:36.294Z,27.17
2022-11-20T17:26:05.351Z,26.77
2022-11-20T17:28:34.642Z,26.53
2022-11-20T17:31:03.234Z,28.60
2022-11-20T17:33:31.645Z,29.90
2022-11-20T17:36:00.002Z,27.87
2022-11-20T17:38:29.817Z,28.03
2022-11-20T17:41:03.471Z,28.27
2022-11-20T17:43:35.686Z,27.27
2022-11-20T17:46:06.252Z,28.03
2022-11-20T17:48:34.694Z,28.17
2022-11-20T17:51:03.111Z,27.17
2022-11-20T17:53:34.736Z,28.57
2022-11-20T17:56:21.224Z,27.43
2022-11-20T17:58:49.572Z,25.70
2022-11-20T18:01:17.964Z,26.30
2022-11-20T18:03:46.297Z,27.10
2022-11-20T18:06:14.994Z,27.20
2022-11-20T18:08:44.705Z,25.90
2022-11-20T18:11:13.403Z,24.57
2022-11-20T18:13:59.315Z,26.17
2022-11-20T18:16:27.748Z,28.27
2022-11-20T18:18:56.422Z,29.17
2022-11-20T18:21:25.064Z,30.17
2022-11-20T18:23:54.867Z,29.13
2022-11-20T18:26:23.435Z,26.80
2022-11-20T18:28:51.767Z,25.70
2022-11-20T18:31:20.322Z,25.73
2022-11-20T18:33:48.725Z,27.47
2022-11-20T18:36:18.477Z,28.07
2022-11-20T18:38:47.161Z,28.10
2022-11-20T18:41:31.126Z,27.97
2022-11-20T18:44:17.446Z,29.90
2022-11-20T18:46:46.284Z,28.83
2022-11-20T18:49:14.627Z,28.60
2022-11-20T18:51:44.095Z,28.27
2022-11-20T18:54:12.499Z,29.33
2022-11-20T18:56:42.176Z,32.67
2022-11-20T18:59:11.253Z,33.47
2022-11-20T19:01:39.714Z,31.43
2022-11-20T19:04:08.500Z,31.90
2022-11-20T19:06:36.884Z,29.33
2022-11-20T19:09:06.345Z,30.20
2022-11-20T19:11:34.604Z,29.90
2022-11-20T19:14:04.571Z,31.53
2022-11-20T19:16:33.028Z,30.10
2022-11-20T19:19:03.391Z,28.27
2022-11-20T19:21:34.391Z,29.23
2022-11-20T19:24:05.325Z,27.70
2022-11-20T19:26:33.789Z,28.93
2022-11-20T19:29:02.088Z,27.67
2022-11-20T19:31:31.801Z,28.13
2022-11-20T19:34:00.812Z,27.73
2022-11-20T19:36:29.806Z,28.13
2022-11-20T19:38:58.739Z,25.80
2022-11-20T19:41:29.097Z,26.80
2022-11-20T19:44:00.743Z,28.10
2022-11-20T19:46:29.464Z,28.87
2022-11-20T19:48:59.234Z,28.77
2022-11-20T19:51:28.033Z,28.87
2022-11-20T19:53:56.830Z,26.50
2022-11-20T19:56:25.227Z,31.97
2022-11-20T19:58:54.777Z,31.27
2022-11-20T20:01:24.170Z,29.97
2022-11-20T20:03:52.531Z,28.80
2022-11-20T20:06:22.671Z,29.57
2022-11-20T20:08:55.562Z,26.43
2022-11-20T20:11:24.385Z,28.40
2022-11-20T20:13:53.481Z,27.20
2022-11-20T20:16:22.392Z,26.37
2022-11-20T20:18:50.700Z,23.93
2022-11-20T20:21:19.339Z,13.73
2022-11-20T20:23:49.597Z,15.50
2022-11-20T20:26:17.911Z,8.37
2022-11-20T20:28:46.591Z,7.90
2022-11-20T20:31:15.428Z,7.07
2022-11-20T20:33:44.766Z,5.67
2022-11-20T20:36:13.755Z,4.80
2022-11-20T20:38:46.764Z,5.20
2022-11-20T20:41:17.000Z,5.17
2022-11-20T20:44:02.938Z,5.33
2022-11-20T20:46:31.228Z,4.60
2022-11-20T20:48:59.630Z,6.83
2022-11-20T20:51:28.017Z,4.60
2022-11-20T20:53:56.371Z,5.07
2022-11-20T20:56:26.092Z,5.03
2022-11-20T20:58:54.455Z,4.93
2022-11-20T21:01:22.981Z,4.97
2022-11-20T21:03:51.439Z,5.93
2022-11-20T21:06:19.929Z,3.87
2022-11-20T21:08:48.474Z,4.90
2022-11-20T21:11:17.303Z,3.97
2022-11-20T21:13:47.231Z,5.30
2022-11-20T21:16:16.077Z,5.20
2022-11-20T21:18:44.379Z,4.60
2022-11-20T21:21:42.124Z,5.13
2022-11-20T21:24:10.491Z,4.33
2022-11-20T21:26:38.844Z,5.70
2022-11-20T21:29:08.622Z,4.17
2022-11-20T21:31:37.482Z,4.80
2022-11-20T21:34:05.842Z,4.07
2022-11-20T21:36:34.207Z,4.83
2022-11-20T21:39:02.537Z,4.33
2022-11-20T21:41:31.300Z,4.23
2022-11-20T21:44:29.529Z,4.40
2022-11-20T21:46:49.922Z,4.53
2022-11-20T21:49:19.635Z,2.80
2022-11-20T21:51:47.987Z,3.23
2022-11-20T21:54:17.527Z,2.90
2022-11-20T21:56:45.936Z,3.00
2022-11-20T21:59:14.618Z,3.33
2022-11-20T22:01:43.047Z,3.37
2022-11-20T22:04:15.595Z,4.47
2022-11-20T22:06:43.916Z,3.40
2022-11-20T22:09:12.527Z,3.50
2022-11-20T22:11:41.294Z,3.10
2022-11-20T22:14:24.036Z,3.10
2022-11-20T22:16:53.237Z,2.70
2022-11-20T22:19:23.157Z,3.27
2022-11-20T22:21:51.743Z,2.67
2022-11-20T22:24:21.108Z,3.60
2022-11-20T22:26:49.669Z,3.30
2022-11-20T22:29:18.216Z,3.27
2022-11-20T22:31:47.932Z,2.97
2022-11-20T22:34:16.481Z,2.77
2022-11-20T22:36:46.137Z,3.93
2022-11-20T22:39:14.592Z,3.23
2022-11-20T22:41:46.079Z,3.93
2022-11-20T22:44:14.538Z,2.93
2022-11-20T22:46:42.940Z,3.53
2022-11-20T22:49:11.854Z,3.23
2022-11-20T22:51:40.457Z,3.90
2022-11-20T22:54:14.690Z,7.00
2022-11-20T22:56:43.373Z,7.63
2022-11-20T22:59:12.515Z,8.20
2022-11-20T23:01:40.862Z,8.90
2022-11-20T23:04:10.757Z,8.93
2022-11-20T23:06:39.205Z,10.23
2022-11-20T23:09:07.710Z,10.77
2022-11-20T23:11:37.399Z,12.50
2022-11-20T23:14:06.293Z,13.10
2022-11-20T23:16:34.769Z,15.13
2022-11-20T23:19:03.716Z,15.57
2022-11-20T23:21:31.978Z,16.13
2022-11-20T23:24:00.428Z,16.27
2022-11-20T23:26:29.277Z,16.80
2022-11-20T23:28:59.504Z,19.37
2022-11-20T23:31:28.018Z,18.53
2022-11-20T23:33:56.549Z,19.73
2022-11-20T23:36:24.807Z,20.37
2022-11-20T23:38:53.103Z,19.97
2022-11-20T23:41:21.466Z,20.53
2022-11-20T23:43:49.798Z,20.37
2022-11-20T23:46:19.621Z,21.40
2022-11-20T23:48:47.991Z,21.20
2022-11-20T23:51:16.744Z,24.57
2022-11-20T23:53:45.026Z,21.80
2022-11-20T23:56:14.557Z,21.17
2022-11-20T23:58:43.137Z,21.37
